createdAt,value
2019-05-02T00:01:01.151Z,13.60
2019-05-02T00:03:36.032Z,12.73
2019-05-02T00:06:07.362Z,12.90
2019-05-02T00:08:38.391Z,13.80
2019-05-02T00:11:11.461Z,14.30
2019-05-02T00:13:42.233Z,12.60
2019-05-02T00:16:14.178Z,13.50
2019-05-02T00:18:46.743Z,12.80
2019-05-02T00:21:17.313Z,12.83
2019-05-02T00:23:47.934Z,13.50
2019-05-02T00:26:18.507Z,12.83
2019-05-02T00:28:49.930Z,13.30
2019-05-02T00:31:21.653Z,14.70
2019-05-02T00:33:52.120Z,13.17
2019-05-02T00:36:22.607Z,13.47
2019-05-02T00:38:53.077Z,14.77
2019-05-02T00:41:24.344Z,13.83
2019-05-02T00:43:54.847Z,15.33
2019-05-02T00:46:25.343Z,13.97
2019-05-02T00:48:59.767Z,14.03
2019-05-02T00:51:29.742Z,13.90
2019-05-02T00:54:00.250Z,15.50
2019-05-02T00:56:30.746Z,12.80
2019-05-02T00:59:02.242Z,15.97
2019-05-02T01:01:35.907Z,14.63
2019-05-02T01:04:27.645Z,15.23
2019-05-02T01:06:56.865Z,13.17
2019-05-02T01:09:27.564Z,14.33
2019-05-02T01:11:58.058Z,16.07
2019-05-02T01:14:31.721Z,12.97
2019-05-02T01:17:00.826Z,14.27
2019-05-02T01:19:31.642Z,15.00
2019-05-02T01:22:02.792Z,16.00
2019-05-02T01:24:34.077Z,14.77
2019-05-02T01:27:07.273Z,14.70
2019-05-02T01:29:39.685Z,14.53
2019-05-02T01:32:11.794Z,14.73
2019-05-02T01:34:54.452Z,14.17
2019-05-02T01:37:27.285Z,14.57
2019-05-02T01:39:57.802Z,15.13
2019-05-02T01:42:39.412Z,14.63
2019-05-02T01:45:00.647Z,14.97
2019-05-02T01:47:34.162Z,14.63
2019-05-02T01:50:03.404Z,14.70
2019-05-02T01:52:34.443Z,15.20
2019-05-02T01:55:07.253Z,14.53
2019-05-02T01:57:40.012Z,15.50
2019-05-02T02:00:11.539Z,15.33
2019-05-02T02:02:41.967Z,14.13
2019-05-02T02:05:12.807Z,14.20
2019-05-02T02:07:43.308Z,14.47
2019-05-02T02:10:14.996Z,13.87
2019-05-02T02:13:02.824Z,13.83
2019-05-02T02:15:18.622Z,15.33
2019-05-02T02:17:51.465Z,14.67
2019-05-02T02:20:38.779Z,14.67
2019-05-02T02:23:10.160Z,13.40
2019-05-02T02:25:45.298Z,12.80
2019-05-02T02:28:15.805Z,16.43
2019-05-02T02:30:46.335Z,15.23
2019-05-02T02:33:16.851Z,15.23
2019-05-02T02:35:50.351Z,14.77
2019-05-02T02:38:19.520Z,13.30
2019-05-02T02:40:49.999Z,14.27
2019-05-02T02:43:33.382Z,14.57
2019-05-02T02:46:04.319Z,13.60
2019-05-02T02:48:40.778Z,12.67
2019-05-02T02:51:07.771Z,14.13
2019-05-02T02:53:38.335Z,13.77
2019-05-02T02:56:10.640Z,13.93
2019-05-02T02:58:45.649Z,13.60
2019-05-02T03:01:27.344Z,15.20
2019-05-02T03:03:47.047Z,14.23
2019-05-02T03:06:17.614Z,15.10
2019-05-02T03:08:49.273Z,15.53
2019-05-02T03:11:23.831Z,14.40
2019-05-02T03:14:05.758Z,15.10
2019-05-02T03:16:29.241Z,15.40
2019-05-02T03:18:59.878Z,14.10
2019-05-02T03:21:30.368Z,16.37
2019-05-02T03:24:03.379Z,13.90
2019-05-02T03:26:33.965Z,14.60
2019-05-02T03:29:04.966Z,16.03
2019-05-02T03:31:35.478Z,14.83
2019-05-02T03:34:06.445Z,16.27
2019-05-02T03:36:37.439Z,15.93
2019-05-02T03:39:14.963Z,15.60
2019-05-02T03:41:40.431Z,15.47
2019-05-02T03:44:18.153Z,15.60
2019-05-02T03:46:43.836Z,15.93
2019-05-02T03:49:14.426Z,16.70
2019-05-02T03:51:44.914Z,15.77
2019-05-02T03:54:19.533Z,16.73
2019-05-02T03:56:51.087Z,14.80
2019-05-02T03:59:21.205Z,15.80
2019-05-02T04:01:51.999Z,16.47
2019-05-02T04:04:23.528Z,16.50
2019-05-02T04:06:55.069Z,16.33
2019-05-02T04:09:42.536Z,17.17
2019-05-02T04:12:18.702Z,15.50
2019-05-02T04:14:41.658Z,15.50
2019-05-02T04:17:12.589Z,15.57
2019-05-02T04:19:43.290Z,16.80
2019-05-02T04:22:15.538Z,17.63
2019-05-02T04:24:54.390Z,16.37
2019-05-02T04:27:18.243Z,16.50
2019-05-02T04:29:48.744Z,16.77
2019-05-02T04:32:19.221Z,17.03
2019-05-02T04:34:55.799Z,17.53
2019-05-02T04:37:21.879Z,16.07
2019-05-02T04:39:53.708Z,20.43
2019-05-02T04:42:24.558Z,25.20
2019-05-02T04:45:14.026Z,23.57
2019-05-02T04:47:29.044Z,17.73
2019-05-02T04:49:59.425Z,17.30
2019-05-02T04:52:29.885Z,18.80
2019-05-02T04:55:14.766Z,17.50
2019-05-02T04:57:36.731Z,18.10
2019-05-02T05:00:11.529Z,16.77
2019-05-02T05:02:40.356Z,14.80
2019-05-02T05:05:10.991Z,16.80
2019-05-02T05:07:46.225Z,15.67
2019-05-02T05:10:13.727Z,19.40
2019-05-02T05:12:44.208Z,17.90
2019-05-02T05:15:33.834Z,17.63
2019-05-02T05:17:47.893Z,19.13
2019-05-02T05:20:19.272Z,17.80
2019-05-02T05:22:49.730Z,18.47
2019-05-02T05:25:21.859Z,17.97
2019-05-02T05:27:57.244Z,17.80
2019-05-02T05:30:24.521Z,20.07
2019-05-02T05:32:55.032Z,18.60
2019-05-02T05:35:25.554Z,18.70
2019-05-02T05:37:57.345Z,19.20
2019-05-02T05:40:31.838Z,19.97
2019-05-02T05:43:02.676Z,19.30
2019-05-02T05:45:32.354Z,19.37
2019-05-02T05:48:02.842Z,21.60
2019-05-02T05:50:39.816Z,21.87
2019-05-02T05:53:07.497Z,21.93
2019-05-02T05:55:38.376Z,20.53
2019-05-02T05:58:15.218Z,21.53
2019-05-02T06:00:45.945Z,21.37
2019-05-02T06:03:14.221Z,22.10
2019-05-02T06:05:44.847Z,18.50
2019-05-02T06:08:18.346Z,17.37
2019-05-02T06:10:48.427Z,17.80
2019-05-02T06:13:18.904Z,18.10
2019-05-02T06:16:01.685Z,16.10
2019-05-02T06:18:21.577Z,16.53
2019-05-02T06:20:52.069Z,16.93
2019-05-02T06:23:22.575Z,15.50
2019-05-02T06:25:53.076Z,16.50
2019-05-02T06:28:23.585Z,16.20
2019-05-02T06:30:54.085Z,15.03
2019-05-02T06:33:25.950Z,16.73
2019-05-02T06:36:00.997Z,16.47
2019-05-02T06:38:29.003Z,15.00
2019-05-02T06:40:59.528Z,16.13
2019-05-02T06:43:29.991Z,15.23
2019-05-02T06:46:00.580Z,15.53
2019-05-02T06:48:31.047Z,16.00
2019-05-02T06:51:01.553Z,16.27
2019-05-02T06:53:34.959Z,16.87
2019-05-02T06:56:07.996Z,15.60
2019-05-02T06:58:37.140Z,14.67
2019-05-02T07:01:08.877Z,14.83
2019-05-02T07:03:41.389Z,15.53
2019-05-02T07:06:11.657Z,15.20
2019-05-02T07:08:42.164Z,14.50
2019-05-02T07:11:12.653Z,15.00
2019-05-02T07:13:43.825Z,15.30
2019-05-02T07:16:36.846Z,15.00
2019-05-02T07:18:52.746Z,14.93
2019-05-02T07:21:23.837Z,14.97
2019-05-02T07:23:55.245Z,15.33
2019-05-02T07:26:25.859Z,14.50
2019-05-02T07:28:56.375Z,14.87
2019-05-02T07:31:26.907Z,15.03
2019-05-02T07:33:57.382Z,15.00
2019-05-02T07:36:31.135Z,15.70
2019-05-02T07:39:05.183Z,14.53
2019-05-02T07:41:33.409Z,14.17
2019-05-02T07:44:04.439Z,15.30
2019-05-02T07:46:35.056Z,17.63
2019-05-02T07:49:06.564Z,14.67
2019-05-02T07:51:37.081Z,14.10
2019-05-02T07:54:07.620Z,14.17
2019-05-02T07:56:38.124Z,13.70
2019-05-02T07:59:08.600Z,13.77
2019-05-02T08:01:39.259Z,13.50
2019-05-02T08:04:12.842Z,15.00
2019-05-02T08:06:44.614Z,14.47
2019-05-02T08:09:14.175Z,14.90
2019-05-02T08:11:44.741Z,14.93
2019-05-02T08:14:15.236Z,13.90
2019-05-02T08:16:45.702Z,13.70
2019-05-02T08:19:16.207Z,13.37
2019-05-02T08:21:46.679Z,12.80
2019-05-02T08:24:17.184Z,13.80
2019-05-02T08:26:53.485Z,14.27
2019-05-02T08:29:23.344Z,14.07
2019-05-02T08:31:55.315Z,14.97
2019-05-02T08:34:33.514Z,14.67
2019-05-02T08:37:05.296Z,13.17
2019-05-02T08:39:35.859Z,12.40
2019-05-02T08:42:07.029Z,13.90
2019-05-02T08:44:50.223Z,14.27
2019-05-02T08:47:18.728Z,14.50
2019-05-02T08:49:42.604Z,15.80
2019-05-02T08:52:13.277Z,14.20
2019-05-02T08:54:43.799Z,13.73
2019-05-02T08:57:14.706Z,12.47
2019-05-02T08:59:45.347Z,12.53
2019-05-02T09:02:15.841Z,14.33
2019-05-02T09:04:57.865Z,13.87
2019-05-02T09:07:19.662Z,13.17
2019-05-02T09:09:50.218Z,13.20
2019-05-02T09:12:22.820Z,13.40
2019-05-02T09:14:52.899Z,13.43
2019-05-02T09:17:35.504Z,12.90
2019-05-02T09:20:02.271Z,12.20
2019-05-02T09:22:27.828Z,12.50
2019-05-02T09:24:58.362Z,11.90
2019-05-02T09:27:28.963Z,12.27
2019-05-02T09:29:59.448Z,12.23
2019-05-02T09:32:29.939Z,12.63
2019-05-02T09:35:02.299Z,12.90
2019-05-02T09:37:32.648Z,11.90
2019-05-02T09:40:06.831Z,12.90
2019-05-02T09:42:35.622Z,13.07
2019-05-02T09:45:09.488Z,12.57
2019-05-02T09:47:53.917Z,12.40
2019-05-02T09:50:20.538Z,12.93
2019-05-02T09:52:49.215Z,12.30
2019-05-02T09:55:20.003Z,13.90
2019-05-02T09:57:51.959Z,11.77
2019-05-02T10:00:36.045Z,12.77
2019-05-02T10:03:04.471Z,11.30
2019-05-02T10:05:35.086Z,12.20
2019-05-02T10:08:09.114Z,11.67
2019-05-02T10:10:44.335Z,10.93
2019-05-02T10:13:12.220Z,10.70
2019-05-02T10:15:42.751Z,10.53
2019-05-02T10:18:14.639Z,10.93
2019-05-02T10:20:45.589Z,11.53
2019-05-02T10:23:19.614Z,11.97
2019-05-02T10:25:48.263Z,11.30
2019-05-02T10:28:18.737Z,10.67
2019-05-02T10:30:52.584Z,10.37
2019-05-02T10:33:22.546Z,11.80
2019-05-02T10:35:53.258Z,10.27
2019-05-02T10:38:23.720Z,9.70
2019-05-02T10:41:01.574Z,11.00
2019-05-02T10:43:28.348Z,11.07
2019-05-02T10:46:01.828Z,10.87
2019-05-02T10:48:34.195Z,12.10
2019-05-02T10:51:25.874Z,10.53
2019-05-02T10:53:56.340Z,11.80
2019-05-02T10:56:25.716Z,10.90
2019-05-02T10:58:56.239Z,10.70
2019-05-02T11:01:28.387Z,10.70
2019-05-02T11:04:02.120Z,11.33
2019-05-02T11:06:37.256Z,10.73
2019-05-02T11:09:08.447Z,11.03
2019-05-02T11:11:39.749Z,11.83
2019-05-02T11:14:12.079Z,11.80
2019-05-02T11:16:44.186Z,11.70
2019-05-02T11:19:32.345Z,11.50
2019-05-02T11:22:03.008Z,10.73
2019-05-02T11:24:33.548Z,11.43
2019-05-02T11:27:04.254Z,10.03
2019-05-02T11:29:34.753Z,10.87
2019-05-02T11:32:05.422Z,11.83
2019-05-02T11:34:35.906Z,11.00
2019-05-02T11:37:06.606Z,10.30
2019-05-02T11:39:44.550Z,12.07
2019-05-02T11:42:09.352Z,10.93
2019-05-02T11:44:41.754Z,10.60
2019-05-02T11:47:12.686Z,10.23
2019-05-02T11:49:46.870Z,11.13
2019-05-02T11:52:15.456Z,11.17
2019-05-02T11:54:48.523Z,10.73
2019-05-02T11:57:22.726Z,10.90
2019-05-02T11:59:52.084Z,11.90
2019-05-02T12:02:34.390Z,10.17
2019-05-02T12:05:08.918Z,11.77
2019-05-02T12:07:39.420Z,11.50
2019-05-02T12:10:12.398Z,11.87
2019-05-02T12:12:42.968Z,10.77
2019-05-02T12:15:13.637Z,10.90
2019-05-02T12:17:44.155Z,9.83
2019-05-02T12:20:14.771Z,11.17
2019-05-02T12:22:45.324Z,10.50
2019-05-02T12:25:15.859Z,11.60
2019-05-02T12:27:46.457Z,11.13
2019-05-02T12:30:17.205Z,12.70
2019-05-02T12:32:47.727Z,11.40
2019-05-02T12:35:18.296Z,11.30
2019-05-02T12:37:53.692Z,13.67
2019-05-02T12:40:21.766Z,13.00
2019-05-02T12:42:52.614Z,12.17
2019-05-02T12:45:23.270Z,11.73
2019-05-02T12:47:53.756Z,12.47
2019-05-02T12:50:24.397Z,12.37
2019-05-02T12:52:55.725Z,12.60
2019-05-02T12:55:26.404Z,11.43
2019-05-02T12:57:56.879Z,10.53
2019-05-02T13:00:27.451Z,12.73
2019-05-02T13:03:01.988Z,11.90
2019-05-02T13:05:32.683Z,11.73
2019-05-02T13:08:03.189Z,12.23
2019-05-02T13:10:36.174Z,10.87
2019-05-02T13:13:07.019Z,9.30
2019-05-02T13:15:39.375Z,8.83
2019-05-02T13:18:09.956Z,10.20
2019-05-02T13:20:41.729Z,9.87
2019-05-02T13:23:34.092Z,10.50
2019-05-02T13:26:10.232Z,9.00
2019-05-02T13:28:36.126Z,10.27
2019-05-02T13:31:06.728Z,10.83
2019-05-02T13:33:42.790Z,11.00
2019-05-02T13:36:42.124Z,10.43
2019-05-02T13:39:17.378Z,10.47
2019-05-02T13:41:48.070Z,9.97
2019-05-02T13:44:21.838Z,9.60
2019-05-02T13:46:53.588Z,9.87
2019-05-02T13:49:24.285Z,9.67
2019-05-02T13:51:54.811Z,10.07
2019-05-02T13:54:25.777Z,9.40
2019-05-02T13:56:56.337Z,10.73
2019-05-02T13:59:26.845Z,10.83
2019-05-02T14:01:57.315Z,10.60
2019-05-02T14:04:41.530Z,10.43
2019-05-02T14:07:17.259Z,10.20
2019-05-02T14:09:45.885Z,10.90
2019-05-02T14:12:16.208Z,10.67
2019-05-02T14:14:48.339Z,11.73
2019-05-02T14:17:18.912Z,10.57
2019-05-02T14:19:53.015Z,10.70
2019-05-02T14:22:23.311Z,10.60
2019-05-02T14:24:53.812Z,11.60
2019-05-02T14:27:26.191Z,10.57
2019-05-02T14:29:56.802Z,10.37
2019-05-02T14:32:27.303Z,9.93
2019-05-02T14:34:59.901Z,10.67
2019-05-02T14:37:32.067Z,10.17
2019-05-02T14:40:04.363Z,9.93
2019-05-02T14:42:35.118Z,10.33
2019-05-02T14:45:17.793Z,9.83
2019-05-02T14:47:39.457Z,11.50
2019-05-02T14:50:23.482Z,10.27
2019-05-02T14:52:45.750Z,10.93
2019-05-02T14:55:17.101Z,9.23
2019-05-02T14:57:48.822Z,11.60
2019-05-02T15:00:22.235Z,10.70
2019-05-02T15:02:52.804Z,9.60
2019-05-02T15:05:27.894Z,9.50
2019-05-02T15:08:01.188Z,10.70
2019-05-02T15:10:27.845Z,9.50
2019-05-02T15:12:59.457Z,9.70
2019-05-02T15:15:33.959Z,12.17
2019-05-02T15:18:02.808Z,16.20
2019-05-02T15:20:38.894Z,12.10
2019-05-02T15:23:07.201Z,10.93
2019-05-02T15:25:37.730Z,22.43
2019-05-02T15:28:09.841Z,10.70
2019-05-02T15:30:44.808Z,10.57
2019-05-02T15:33:17.025Z,9.97
2019-05-02T15:35:47.984Z,9.30
2019-05-02T15:38:24.596Z,9.17
2019-05-02T15:40:53.497Z,10.17
2019-05-02T15:43:22.818Z,9.07
2019-05-02T15:45:53.325Z,9.80
2019-05-02T15:48:27.519Z,9.60
2019-05-02T15:50:59.994Z,10.23
2019-05-02T15:53:39.001Z,13.00
2019-05-02T15:56:18.599Z,10.83
2019-05-02T15:58:39.993Z,10.20
2019-05-02T16:01:11.994Z,11.23
2019-05-02T16:03:46.281Z,10.50
2019-05-02T16:06:21.070Z,10.33
2019-05-02T16:08:48.723Z,10.17
2019-05-02T16:11:19.807Z,10.03
2019-05-02T16:13:55.633Z,15.53
2019-05-02T16:16:24.200Z,10.57
2019-05-02T16:18:54.716Z,27.07
2019-05-02T16:21:30.637Z,15.37
2019-05-02T16:24:22.498Z,11.10
2019-05-02T16:26:56.832Z,10.80
2019-05-02T16:29:28.710Z,11.00
2019-05-02T16:32:06.322Z,10.77
2019-05-02T16:34:54.206Z,10.43
2019-05-02T16:37:22.762Z,10.20
2019-05-02T16:39:54.802Z,10.40
2019-05-02T16:42:25.286Z,10.70
2019-05-02T16:44:55.790Z,9.83
2019-05-02T16:47:26.335Z,10.57
2019-05-02T16:49:56.836Z,16.00
2019-05-02T16:52:27.335Z,10.30
2019-05-02T16:54:57.861Z,10.70
2019-05-02T16:57:28.405Z,10.77
2019-05-02T17:00:01.249Z,14.80
2019-05-02T17:02:32.466Z,10.70
2019-05-02T17:05:08.367Z,10.50
2019-05-02T17:07:41.091Z,10.13
2019-05-02T17:10:17.619Z,9.47
2019-05-02T17:12:47.245Z,9.63
2019-05-02T17:15:35.738Z,10.80
2019-05-02T17:18:18.006Z,10.30
2019-05-02T17:20:39.754Z,9.80
2019-05-02T17:23:12.794Z,10.63
2019-05-02T17:25:43.414Z,9.70
2019-05-02T17:28:13.984Z,9.80
2019-05-02T17:30:44.452Z,9.30
2019-05-02T17:33:16.386Z,9.70
2019-05-02T17:35:52.234Z,11.43
2019-05-02T17:38:27.280Z,11.00
2019-05-02T17:40:54.255Z,10.13
2019-05-02T17:43:23.859Z,10.40
2019-05-02T17:45:56.256Z,10.10
2019-05-02T17:48:26.563Z,10.10
2019-05-02T17:50:59.417Z,9.63
2019-05-02T17:53:33.931Z,10.57
2019-05-02T17:56:02.494Z,9.90
2019-05-02T17:58:33.047Z,10.13
2019-05-02T18:01:05.264Z,9.40
2019-05-02T18:03:35.767Z,9.90
2019-05-02T18:06:07.621Z,10.33
2019-05-02T18:08:38.678Z,11.30
2019-05-02T18:11:09.240Z,10.93
2019-05-02T18:13:39.715Z,13.20
2019-05-02T18:16:15.033Z,12.97
2019-05-02T18:18:45.689Z,11.53
2019-05-02T18:21:17.235Z,12.30
2019-05-02T18:23:47.508Z,12.67
2019-05-02T18:26:19.499Z,14.17
2019-05-02T18:28:49.992Z,12.40
2019-05-02T18:31:21.697Z,12.80
2019-05-02T18:33:52.276Z,15.03
2019-05-02T18:36:26.832Z,14.40
2019-05-02T18:39:00.669Z,14.90
2019-05-02T18:41:27.851Z,15.90
2019-05-02T18:43:58.426Z,14.73
2019-05-02T18:46:28.915Z,13.77
2019-05-02T18:48:59.424Z,14.10
2019-05-02T18:51:31.977Z,15.13
2019-05-02T18:54:04.593Z,14.40
2019-05-02T18:56:44.232Z,14.50
2019-05-02T18:59:06.862Z,15.47
2019-05-02T19:01:37.416Z,14.27
2019-05-02T19:04:08.051Z,14.70
2019-05-02T19:06:39.151Z,13.00
2019-05-02T19:09:12.781Z,15.20
2019-05-02T19:11:45.137Z,14.30
2019-05-02T19:14:21.224Z,14.30
2019-05-02T19:16:47.866Z,15.00
2019-05-02T19:19:18.339Z,13.97
2019-05-02T19:21:51.632Z,15.27
2019-05-02T19:24:27.486Z,14.67
2019-05-02T19:26:59.055Z,13.90
2019-05-02T19:29:31.904Z,14.23
2019-05-02T19:32:02.911Z,13.20
2019-05-02T19:34:33.706Z,13.07
2019-05-02T19:37:04.648Z,13.90
2019-05-02T19:39:38.971Z,15.33
2019-05-02T19:42:12.299Z,14.47
2019-05-02T19:44:43.055Z,14.17
2019-05-02T19:47:17.495Z,14.10
2019-05-02T19:49:47.252Z,13.10
2019-05-02T19:52:18.016Z,15.90
2019-05-02T19:54:48.503Z,14.27
2019-05-02T19:57:38.369Z,12.97
2019-05-02T20:00:08.978Z,13.70
2019-05-02T20:02:42.278Z,12.70
2019-05-02T20:05:16.459Z,12.70
2019-05-02T20:07:44.441Z,14.27
2019-05-02T20:10:17.898Z,13.80
2019-05-02T20:12:50.900Z,14.40
2019-05-02T20:15:26.938Z,12.50
2019-05-02T20:18:00.631Z,12.90
2019-05-02T20:21:05.173Z,13.07
2019-05-02T20:23:35.939Z,14.07
2019-05-02T20:26:09.405Z,13.10
2019-05-02T20:28:39.472Z,14.67
2019-05-02T20:31:12.313Z,14.03
2019-05-02T20:33:43.218Z,13.23
2019-05-02T20:36:13.699Z,13.87
2019-05-02T20:38:44.199Z,13.87
2019-05-02T20:41:14.753Z,14.50
2019-05-02T20:43:45.247Z,14.20
2019-05-02T20:46:15.831Z,14.13
2019-05-02T20:48:46.406Z,12.80
2019-05-02T20:51:16.909Z,13.47
2019-05-02T20:53:47.414Z,13.73
2019-05-02T20:56:17.883Z,13.40
2019-05-02T20:58:48.455Z,13.07
2019-05-02T21:01:18.917Z,13.57
2019-05-02T21:03:49.413Z,15.07
2019-05-02T21:06:31.028Z,14.90
2019-05-02T21:09:02.229Z,14.27
2019-05-02T21:11:32.986Z,13.93
2019-05-02T21:14:03.496Z,13.93
2019-05-02T21:16:34.032Z,15.63
2019-05-02T21:19:04.746Z,14.97
2019-05-02T21:21:39.901Z,16.10
2019-05-02T21:24:09.416Z,15.00
2019-05-02T21:26:41.995Z,14.60
2019-05-02T21:29:12.265Z,15.90
2019-05-02T21:31:42.742Z,15.40
2019-05-02T21:34:13.244Z,15.30
2019-05-02T21:36:43.721Z,16.83
2019-05-02T21:39:14.383Z,14.63
2019-05-02T21:41:44.849Z,14.90
2019-05-02T21:44:15.430Z,15.90
2019-05-02T21:46:46.266Z,15.33
2019-05-02T21:49:19.062Z,15.03
2019-05-02T21:51:51.836Z,14.87
2019-05-02T21:54:27.012Z,14.83
2019-05-02T21:57:00.035Z,15.33
2019-05-02T21:59:30.559Z,14.80
2019-05-02T22:02:05.176Z,15.47
2019-05-02T22:04:36.387Z,15.40
2019-05-02T22:07:06.951Z,15.07
2019-05-02T22:09:37.424Z,14.73
2019-05-02T22:12:08.003Z,15.43
2019-05-02T22:14:38.471Z,13.57
2019-05-02T22:17:12.596Z,13.90
2019-05-02T22:19:42.839Z,16.50
2019-05-02T22:22:13.708Z,16.00
2019-05-02T22:24:44.180Z,13.40
2019-05-02T22:27:14.697Z,14.03
2019-05-02T22:29:45.164Z,14.80
2019-05-02T22:32:15.654Z,14.10
2019-05-02T22:34:47.686Z,15.00
2019-05-02T22:37:21.957Z,14.20
2019-05-02T22:39:53.632Z,13.50
2019-05-02T22:42:24.251Z,14.00
2019-05-02T22:44:54.737Z,14.80
2019-05-02T22:47:25.346Z,14.40
2019-05-02T22:49:55.863Z,14.40
2019-05-02T22:52:26.329Z,14.27
2019-05-02T22:54:56.831Z,12.60
2019-05-02T22:57:28.841Z,14.30
2019-05-02T22:59:59.357Z,14.37
2019-05-02T23:02:29.826Z,12.80
2019-05-02T23:05:01.973Z,13.40
2019-05-02T23:07:32.696Z,13.10
2019-05-02T23:10:04.305Z,12.63
2019-05-02T23:12:35.440Z,12.50
2019-05-02T23:15:07.361Z,13.27
2019-05-02T23:17:37.848Z,12.40
2019-05-02T23:20:08.456Z,12.60
2019-05-02T23:22:38.960Z,12.83
2019-05-02T23:25:09.260Z,12.43
2019-05-02T23:27:42.405Z,11.70
2019-05-02T23:30:15.725Z,11.90
2019-05-02T23:32:46.220Z,13.30
2019-05-02T23:35:16.766Z,12.37
2019-05-02T23:37:48.383Z,12.10
2019-05-02T23:40:18.986Z,13.00
2019-05-02T23:42:50.054Z,12.40
2019-05-02T23:45:22.470Z,12.30
2019-05-02T23:47:52.884Z,12.77
2019-05-02T23:50:23.426Z,13.03
2019-05-02T23:52:53.923Z,11.87
2019-05-02T23:55:24.441Z,12.27
2019-05-02T23:57:54.913Z,12.80
